createdAt,value
2023-04-19T00:01:23.380Z,9.36
2023-04-19T00:03:53.545Z,9.31
2023-04-19T00:06:22.082Z,9.21
2023-04-19T00:08:50.418Z,9.24
2023-04-19T00:11:18.837Z,9.20
2023-04-19T00:13:47.064Z,9.14
2023-04-19T00:16:15.485Z,9.10
2023-04-19T00:18:43.983Z,9.16
2023-04-19T00:21:13.663Z,9.15
2023-04-19T00:23:41.955Z,9.20
2023-04-19T00:26:11.664Z,9.15
2023-04-19T00:28:40.690Z,9.12
2023-04-19T00:31:11.000Z,9.08
2023-04-19T00:33:39.323Z,9.16
2023-04-19T00:36:08.022Z,9.11
2023-04-19T00:38:37.675Z,9.10
2023-04-19T00:41:05.989Z,9.04
2023-04-19T00:43:34.373Z,9.03
2023-04-19T00:46:02.969Z,9.01
2023-04-19T00:48:31.984Z,9.04
2023-04-19T00:51:00.415Z,9.00
2023-04-19T00:53:28.792Z,8.96
2023-04-19T00:56:01.083Z,8.94
2023-04-19T00:58:31.579Z,8.93
2023-04-19T01:00:59.995Z,8.88
2023-04-19T01:03:29.432Z,8.76
2023-04-19T01:05:58.102Z,8.85
2023-04-19T01:08:26.304Z,8.80
2023-04-19T01:10:55.608Z,8.80
2023-04-19T01:13:25.266Z,8.87
2023-04-19T01:15:53.555Z,8.86
2023-04-19T01:18:23.985Z,8.85
2023-04-19T01:20:52.323Z,8.80
2023-04-19T01:23:21.985Z,8.80
2023-04-19T01:25:51.126Z,8.70
2023-04-19T01:28:19.396Z,8.73
2023-04-19T01:30:47.698Z,8.73
2023-04-19T01:33:16.901Z,8.71
2023-04-19T01:35:45.129Z,8.64
2023-04-19T01:38:13.423Z,8.65
2023-04-19T01:40:44.890Z,8.65
2023-04-19T01:43:15.162Z,8.68
2023-04-19T01:45:43.488Z,8.63
2023-04-19T01:48:13.616Z,8.60
2023-04-19T01:50:41.924Z,8.53
2023-04-19T01:53:10.181Z,8.57
2023-04-19T01:55:38.575Z,8.48
2023-04-19T01:58:08.679Z,8.53
2023-04-19T02:00:36.992Z,8.52
2023-04-19T02:03:06.120Z,8.45
2023-04-19T02:05:34.434Z,8.52
2023-04-19T02:08:02.995Z,8.46
2023-04-19T02:10:32.639Z,8.42
2023-04-19T02:13:01.433Z,8.44
2023-04-19T02:15:31.172Z,8.45
2023-04-19T02:18:00.650Z,8.48
2023-04-19T02:20:28.959Z,8.52
2023-04-19T02:22:57.175Z,8.50
2023-04-19T02:25:25.465Z,8.56
2023-04-19T02:27:53.805Z,8.55
2023-04-19T02:30:22.361Z,8.65
2023-04-19T02:32:55.002Z,8.70
2023-04-19T02:35:23.538Z,8.79
2023-04-19T02:37:51.811Z,8.81
2023-04-19T02:40:21.152Z,8.94
2023-04-19T02:42:49.669Z,8.97
2023-04-19T02:45:17.955Z,9.02
2023-04-19T02:47:48.918Z,9.08
2023-04-19T02:50:19.029Z,9.18
2023-04-19T02:52:50.909Z,9.21
2023-04-19T02:55:21.106Z,9.29
2023-04-19T02:57:55.202Z,9.29
2023-04-19T03:00:23.692Z,9.35
2023-04-19T03:03:04.631Z,9.41
2023-04-19T03:05:36.037Z,9.38
2023-04-19T03:08:04.536Z,9.45
2023-04-19T03:10:33.300Z,9.49
2023-04-19T03:13:01.747Z,9.51
2023-04-19T03:15:31.272Z,9.53
2023-04-19T03:17:59.587Z,9.56
2023-04-19T03:20:28.109Z,9.56
2023-04-19T03:22:59.033Z,9.56
2023-04-19T03:25:27.804Z,9.63
2023-04-19T03:28:05.837Z,9.62
2023-04-19T03:30:52.971Z,9.65
2023-04-19T03:33:21.312Z,9.62
2023-04-19T03:35:49.909Z,9.66
2023-04-19T03:38:19.565Z,9.64
2023-04-19T03:40:49.147Z,9.68
2023-04-19T03:43:18.969Z,9.68
2023-04-19T03:45:47.439Z,9.75
2023-04-19T03:48:15.806Z,9.77
2023-04-19T03:50:44.225Z,9.83
2023-04-19T03:53:16.047Z,9.79
2023-04-19T03:55:45.898Z,9.83
2023-04-19T03:58:14.154Z,9.89
2023-04-19T04:00:54.518Z,9.82
2023-04-19T04:03:23.032Z,9.79
2023-04-19T04:05:51.470Z,9.82
2023-04-19T04:08:20.158Z,9.85
2023-04-19T04:10:50.591Z,9.88
2023-04-19T04:13:20.486Z,9.89
2023-04-19T04:15:58.645Z,9.89
2023-04-19T04:18:27.152Z,9.93
2023-04-19T04:20:55.591Z,9.94
2023-04-19T04:23:25.429Z,9.95
2023-04-19T04:26:02.605Z,9.99
2023-04-19T04:28:42.440Z,10.00
2023-04-19T04:31:13.067Z,10.04
2023-04-19T04:33:42.793Z,10.08
2023-04-19T04:36:13.647Z,10.11
2023-04-19T04:38:43.276Z,10.05
2023-04-19T04:41:13.206Z,10.11
2023-04-19T04:43:41.510Z,10.09
2023-04-19T04:46:11.031Z,10.11
2023-04-19T04:48:42.979Z,10.04
2023-04-19T04:51:11.367Z,9.94
2023-04-19T04:53:41.072Z,9.90
2023-04-19T04:56:12.186Z,9.84
2023-04-19T04:58:40.736Z,9.85
2023-04-19T05:01:12.287Z,9.84
2023-04-19T05:03:43.013Z,9.81
2023-04-19T05:06:15.931Z,9.79
2023-04-19T05:08:45.205Z,9.81
2023-04-19T05:11:21.445Z,9.81
2023-04-19T05:13:50.014Z,9.81
2023-04-19T05:16:18.505Z,9.77
2023-04-19T05:18:48.458Z,9.81
2023-04-19T05:21:17.177Z,9.78
2023-04-19T05:23:45.779Z,9.81
2023-04-19T05:26:15.894Z,9.81
2023-04-19T05:28:46.504Z,9.82
2023-04-19T05:31:22.917Z,9.91
2023-04-19T05:34:07.646Z,9.90
2023-04-19T05:36:35.983Z,9.92
2023-04-19T05:39:04.392Z,9.98
2023-04-19T05:41:32.652Z,10.00
2023-04-19T05:44:02.236Z,10.00
2023-04-19T05:46:30.817Z,10.05
2023-04-19T05:48:59.453Z,10.01
2023-04-19T05:51:50.322Z,9.97
2023-04-19T05:54:37.056Z,10.09
2023-04-19T05:57:07.101Z,10.14
2023-04-19T05:59:36.859Z,10.22
2023-04-19T06:02:06.176Z,10.31
2023-04-19T06:04:34.745Z,10.29
2023-04-19T06:07:04.525Z,10.36
2023-04-19T06:09:34.480Z,10.43
2023-04-19T06:12:02.727Z,10.42
2023-04-19T06:14:31.443Z,10.50
2023-04-19T06:17:01.305Z,10.51
2023-04-19T06:19:29.511Z,10.60
2023-04-19T06:21:57.721Z,10.66
2023-04-19T06:24:26.179Z,10.68
2023-04-19T06:26:54.741Z,10.70
2023-04-19T06:29:24.237Z,10.84
2023-04-19T06:31:52.752Z,10.96
2023-04-19T06:34:22.534Z,11.07
2023-04-19T06:36:50.836Z,11.17
2023-04-19T06:39:19.179Z,11.19
2023-04-19T06:41:47.493Z,11.23
2023-04-19T06:44:18.467Z,11.27
2023-04-19T06:46:46.930Z,11.33
2023-04-19T06:49:15.602Z,11.57
2023-04-19T06:51:45.488Z,11.90
2023-04-19T06:54:13.798Z,12.25
2023-04-19T06:56:45.553Z,11.98
2023-04-19T06:59:14.753Z,11.97
2023-04-19T07:01:43.300Z,11.75
2023-04-19T07:04:12.479Z,11.74
2023-04-19T07:06:41.241Z,11.99
2023-04-19T07:09:10.876Z,12.22
2023-04-19T07:11:39.111Z,12.36
2023-04-19T07:14:07.426Z,12.21
2023-04-19T07:16:35.957Z,12.28
2023-04-19T07:19:04.244Z,12.08
2023-04-19T07:21:33.573Z,12.16
2023-04-19T07:24:01.846Z,12.23
2023-04-19T07:26:31.659Z,12.21
2023-04-19T07:29:00.043Z,12.29
2023-04-19T07:31:29.244Z,12.27
2023-04-19T07:33:57.602Z,12.33
2023-04-19T07:36:25.886Z,12.35
2023-04-19T07:38:54.223Z,12.51
2023-04-19T07:41:22.532Z,12.56
2023-04-19T07:43:52.120Z,12.45
2023-04-19T07:46:20.464Z,12.64
2023-04-19T07:48:48.775Z,12.62
2023-04-19T07:51:19.260Z,12.77
2023-04-19T07:53:48.653Z,12.80
2023-04-19T07:56:17.002Z,12.91
2023-04-19T07:58:48.610Z,12.90
2023-04-19T08:01:23.448Z,13.05
2023-04-19T08:03:52.079Z,13.11
2023-04-19T08:06:21.709Z,13.10
2023-04-19T08:08:50.237Z,13.29
2023-04-19T08:11:18.562Z,13.27
2023-04-19T08:14:02.694Z,13.24
2023-04-19T08:19:07.518Z,13.29
2023-04-19T08:21:41.288Z,13.39
2023-04-19T08:24:10.116Z,13.49
2023-04-19T08:26:39.062Z,13.52
2023-04-19T08:29:07.498Z,13.68
2023-04-19T08:31:37.444Z,13.54
2023-04-19T08:34:05.750Z,13.58
2023-04-19T08:36:41.002Z,13.53
2023-04-19T08:39:24.592Z,13.74
2023-04-19T08:42:10.365Z,13.83
2023-04-19T08:44:56.252Z,13.80
2023-04-19T08:47:34.455Z,13.91
2023-04-19T08:50:17.514Z,13.96
2023-04-19T08:52:58.589Z,14.13
2023-04-19T08:55:30.435Z,14.27
2023-04-19T08:57:59.343Z,14.41
2023-04-19T09:00:27.673Z,14.55
2023-04-19T09:02:58.755Z,14.42
2023-04-19T09:05:30.250Z,14.49
2023-04-19T09:08:22.684Z,14.75
2023-04-19T09:10:55.198Z,14.73
2023-04-19T09:13:23.655Z,14.74
2023-04-19T09:15:53.671Z,14.91
2023-04-19T09:18:24.921Z,14.77
2023-04-19T09:20:57.236Z,14.96
2023-04-19T09:23:27.429Z,14.88
2023-04-19T09:28:29.646Z,14.97
2023-04-19T09:31:08.418Z,14.84
2023-04-19T09:33:48.523Z,15.25
2023-04-19T09:36:28.792Z,15.54
2023-04-19T09:38:57.246Z,15.52
2023-04-19T09:41:26.981Z,15.52
2023-04-19T09:46:34.428Z,15.51
2023-04-19T09:49:27.889Z,15.69
2023-04-19T09:52:06.877Z,15.65
2023-04-19T09:54:35.299Z,15.54
2023-04-19T09:57:03.842Z,15.63
2023-04-19T09:59:32.578Z,15.72
2023-04-19T10:02:02.127Z,15.82
2023-04-19T10:04:44.035Z,16.07
2023-04-19T10:07:30.112Z,16.14
2023-04-19T10:15:07.057Z,16.41
2023-04-19T10:17:35.984Z,16.39
2023-04-19T10:20:10.778Z,16.58
2023-04-19T10:22:39.837Z,16.28
2023-04-19T10:25:13.002Z,16.17
2023-04-19T10:27:48.714Z,16.64
2023-04-19T10:30:21.549Z,16.65
2023-04-19T10:32:56.383Z,16.67
2023-04-19T10:35:29.437Z,17.19
2023-04-19T10:38:06.204Z,17.51
2023-04-19T10:41:00.739Z,17.44
2023-04-19T10:43:30.500Z,17.09
2023-04-19T10:46:03.454Z,17.04
2023-04-19T10:48:38.168Z,17.59
2023-04-19T10:51:15.602Z,17.94
2023-04-19T10:53:49.018Z,17.69
2023-04-19T10:56:17.914Z,17.29
2023-04-19T10:59:21.447Z,17.46
2023-04-19T11:01:52.831Z,17.33
2023-04-19T11:04:22.957Z,17.96
2023-04-19T11:07:04.257Z,18.18
2023-04-19T11:09:34.662Z,18.27
2023-04-19T11:12:05.459Z,17.92
2023-04-19T11:14:35.604Z,17.60
2023-04-19T11:17:05.872Z,17.50
2023-04-19T11:19:34.216Z,17.94
2023-04-19T11:22:04.615Z,17.75
2023-04-19T11:24:32.996Z,17.94
2023-04-19T11:27:01.264Z,17.82
2023-04-19T11:29:29.557Z,17.68
2023-04-19T11:31:57.851Z,17.83
2023-04-19T11:34:26.093Z,18.07
2023-04-19T11:36:54.444Z,17.77
2023-04-19T11:39:24.173Z,17.78
2023-04-19T11:41:52.421Z,17.88
2023-04-19T11:44:21.540Z,17.98
2023-04-19T11:47:00.343Z,17.91
2023-04-19T11:49:29.991Z,17.44
2023-04-19T11:52:00.584Z,17.95
2023-04-19T11:54:31.035Z,18.43
2023-04-19T11:57:04.721Z,18.36
2023-04-19T11:59:33.847Z,17.97
2023-04-19T12:02:09.828Z,18.18
2023-04-19T12:04:38.884Z,18.36
2023-04-19T12:07:08.251Z,18.54
2023-04-19T12:09:38.960Z,18.55
2023-04-19T12:12:07.399Z,18.34
2023-04-19T12:14:35.673Z,18.18
2023-04-19T12:17:12.148Z,18.32
2023-04-19T12:19:46.238Z,18.51
2023-04-19T12:22:16.754Z,17.97
2023-04-19T12:24:46.544Z,18.22
2023-04-19T12:27:18.777Z,18.10
2023-04-19T12:29:47.190Z,18.03
2023-04-19T12:32:16.115Z,18.09
2023-04-19T12:34:44.765Z,18.09
2023-04-19T12:37:13.040Z,17.96
2023-04-19T12:39:41.309Z,18.18
2023-04-19T12:42:10.951Z,18.39
2023-04-19T12:44:39.382Z,18.47
2023-04-19T12:47:07.909Z,18.69
2023-04-19T12:49:36.402Z,18.22
2023-04-19T12:52:04.662Z,18.02
2023-04-19T12:54:32.929Z,18.20
2023-04-19T12:57:03.410Z,17.74
2023-04-19T12:59:33.484Z,17.83
2023-04-19T13:02:01.984Z,17.96
2023-04-19T13:04:30.561Z,17.90
2023-04-19T13:06:59.118Z,18.44
2023-04-19T13:09:28.523Z,18.64
2023-04-19T13:11:57.784Z,18.43
2023-04-19T13:14:27.466Z,18.69
2023-04-19T13:16:57.125Z,18.38
2023-04-19T13:19:25.597Z,18.25
2023-04-19T13:21:53.913Z,18.13
2023-04-19T13:24:22.232Z,18.25
2023-04-19T13:26:50.657Z,17.92
2023-04-19T13:29:18.969Z,18.37
2023-04-19T13:31:47.721Z,18.00
2023-04-19T13:34:18.927Z,18.05
2023-04-19T13:36:47.473Z,18.26
2023-04-19T13:39:15.917Z,18.89
2023-04-19T13:41:44.182Z,18.49
2023-04-19T13:44:12.462Z,18.10
2023-04-19T13:46:40.721Z,18.19
2023-04-19T13:49:08.971Z,18.37
2023-04-19T13:51:48.838Z,18.99
2023-04-19T13:54:19.801Z,18.74
2023-04-19T13:56:51.394Z,18.41
2023-04-19T13:59:20.901Z,18.63
2023-04-19T14:01:49.256Z,18.46
2023-04-19T14:04:18.180Z,18.73
2023-04-19T14:06:48.006Z,18.40
2023-04-19T14:09:16.700Z,18.32
2023-04-19T14:11:44.965Z,18.10
2023-04-19T14:14:13.262Z,17.96
2023-04-19T14:16:41.573Z,18.40
2023-04-19T14:19:10.173Z,18.55
2023-04-19T14:21:38.455Z,18.50
2023-04-19T14:24:08.866Z,18.55
2023-04-19T14:26:37.242Z,18.81
2023-04-19T14:29:06.585Z,18.88
2023-04-19T14:31:34.923Z,18.97
2023-04-19T14:34:03.666Z,18.71
2023-04-19T14:36:31.906Z,19.50
2023-04-19T14:39:00.239Z,19.07
2023-04-19T14:41:30.299Z,19.41
2023-04-19T14:43:58.754Z,19.47
2023-04-19T14:46:27.067Z,19.82
2023-04-19T14:48:55.348Z,19.91
2023-04-19T14:51:23.603Z,20.03
2023-04-19T14:53:51.848Z,20.44
2023-04-19T14:56:20.201Z,20.36
2023-04-19T14:58:49.810Z,20.74
2023-04-19T15:01:18.073Z,20.05
2023-04-19T15:03:46.626Z,19.62
2023-04-19T15:06:15.377Z,20.27
2023-04-19T15:08:43.918Z,20.31
2023-04-19T15:11:12.220Z,20.42
2023-04-19T15:13:41.410Z,20.15
2023-04-19T15:16:11.259Z,19.83
2023-04-19T15:18:39.545Z,19.67
2023-04-19T15:21:07.973Z,19.13
2023-04-19T15:23:36.315Z,19.80
2023-04-19T15:26:04.749Z,19.28
2023-04-19T15:28:36.092Z,19.67
2023-04-19T15:31:06.182Z,19.69
2023-04-19T15:33:36.937Z,20.34
2023-04-19T15:36:05.818Z,20.10
2023-04-19T15:38:34.266Z,20.00
2023-04-19T15:41:02.564Z,19.79
2023-04-19T15:43:31.540Z,19.95
2023-04-19T15:46:00.323Z,19.85
2023-04-19T15:48:29.773Z,19.54
2023-04-19T15:50:59.475Z,19.83
2023-04-19T15:53:27.759Z,20.25
2023-04-19T15:55:56.263Z,19.62
2023-04-19T15:58:25.151Z,19.91
2023-04-19T16:00:53.731Z,18.28
2023-04-19T16:03:22.397Z,18.49
2023-04-19T16:05:51.788Z,19.45
2023-04-19T16:08:21.433Z,18.83
2023-04-19T16:10:50.618Z,18.29
2023-04-19T16:13:18.966Z,17.64
2023-04-19T16:15:47.402Z,18.56
2023-04-19T16:18:15.652Z,18.81
2023-04-19T16:20:44.112Z,19.67
2023-04-19T16:23:14.465Z,18.85
2023-04-19T16:25:44.264Z,19.03
2023-04-19T16:28:12.588Z,19.41
2023-04-19T16:30:40.843Z,18.46
2023-04-19T16:33:09.325Z,19.12
2023-04-19T16:35:37.641Z,20.36
2023-04-19T16:38:07.021Z,19.58
2023-04-19T16:40:35.394Z,19.99
2023-04-19T16:43:06.403Z,20.26
2023-04-19T16:45:34.805Z,20.19
2023-04-19T16:48:03.146Z,19.88
2023-04-19T16:50:31.511Z,18.87
2023-04-19T16:52:59.749Z,19.18
2023-04-19T16:55:28.122Z,19.89
2023-04-19T16:57:56.348Z,19.33
2023-04-19T17:00:26.016Z,18.88
2023-04-19T17:02:54.433Z,18.51
2023-04-19T17:05:22.825Z,17.46
2023-04-19T17:07:51.630Z,16.81
2023-04-19T17:10:19.894Z,15.66
2023-04-19T17:12:48.725Z,15.45
2023-04-19T17:15:17.177Z,15.39
2023-04-19T17:17:46.827Z,15.39
2023-04-19T17:20:15.484Z,15.00
2023-04-19T17:22:43.884Z,14.83
2023-04-19T17:25:12.356Z,14.88
2023-04-19T17:27:40.870Z,14.79
2023-04-19T17:30:10.340Z,14.58
2023-04-19T17:32:38.747Z,14.68
2023-04-19T17:35:09.457Z,14.64
2023-04-19T17:37:37.882Z,14.62
2023-04-19T17:40:07.477Z,14.49
2023-04-19T17:42:35.687Z,14.41
2023-04-19T17:45:05.945Z,14.26
2023-04-19T17:47:34.333Z,14.17
2023-04-19T17:50:07.214Z,14.14
2023-04-19T17:52:37.496Z,14.11
2023-04-19T17:55:07.284Z,14.14
2023-04-19T17:57:36.199Z,14.22
2023-04-19T18:00:07.796Z,14.09
2023-04-19T18:02:39.502Z,14.01
2023-04-19T18:05:08.643Z,13.85
2023-04-19T18:07:38.356Z,13.96
2023-04-19T18:10:07.676Z,13.77
2023-04-19T18:12:36.001Z,13.76
2023-04-19T18:15:06.079Z,13.65
2023-04-19T18:17:34.486Z,13.63
2023-04-19T18:20:05.096Z,13.55
2023-04-19T18:22:33.372Z,13.48
2023-04-19T18:25:02.993Z,13.37
2023-04-19T18:27:32.430Z,13.37
2023-04-19T18:30:03.758Z,13.32
2023-04-19T18:32:32.797Z,13.26
2023-04-19T18:35:03.183Z,13.25
2023-04-19T18:37:32.098Z,13.21
2023-04-19T18:40:00.487Z,13.11
2023-04-19T18:42:30.302Z,13.19
2023-04-19T18:44:58.786Z,13.10
2023-04-19T18:47:27.745Z,13.06
2023-04-19T18:50:04.458Z,13.02
2023-04-19T18:52:35.441Z,12.94
2023-04-19T18:55:04.244Z,12.89
2023-04-19T18:57:35.406Z,12.89
2023-04-19T19:00:06.701Z,12.81
2023-04-19T19:02:36.960Z,12.76
2023-04-19T19:05:08.213Z,12.72
2023-04-19T19:07:37.699Z,12.74
2023-04-19T19:10:18.500Z,12.62
2023-04-19T19:12:51.175Z,12.60
2023-04-19T19:15:19.684Z,12.65
2023-04-19T19:17:50.445Z,12.63
2023-04-19T19:20:19.839Z,12.60
2023-04-19T19:22:48.355Z,12.51
2023-04-19T19:25:16.867Z,12.52
2023-04-19T19:28:02.988Z,12.46
2023-04-19T19:30:35.717Z,12.56
2023-04-19T19:33:05.044Z,12.43
2023-04-19T19:35:33.744Z,12.43
2023-04-19T19:38:02.221Z,12.29
2023-04-19T19:40:32.552Z,12.26
2023-04-19T19:43:01.636Z,12.21
2023-04-19T19:45:31.145Z,12.10
2023-04-19T19:48:01.335Z,12.12
2023-04-19T19:53:01.850Z,12.07
2023-04-19T19:55:30.743Z,12.06
2023-04-19T20:03:03.348Z,11.87
2023-04-19T20:05:32.126Z,11.85
2023-04-19T20:08:09.884Z,11.79
2023-04-19T20:10:39.497Z,11.76
2023-04-19T20:13:07.857Z,11.70
2023-04-19T20:15:37.707Z,11.67
2023-04-19T20:18:08.328Z,11.69
2023-04-19T20:20:37.421Z,11.64
2023-04-19T20:23:06.179Z,11.63
2023-04-19T20:25:34.464Z,11.56
2023-04-19T20:28:03.485Z,11.49
2023-04-19T20:30:32.046Z,11.56
2023-04-19T20:33:01.265Z,11.43
2023-04-19T20:35:31.478Z,11.36
2023-04-19T20:38:02.827Z,11.31
2023-04-19T20:40:32.275Z,11.24
2023-04-19T20:43:01.000Z,11.20
2023-04-19T20:45:29.943Z,11.18
2023-04-19T20:47:58.669Z,11.14
2023-04-19T20:50:27.376Z,11.18
2023-04-19T20:52:58.246Z,11.02
2023-04-19T20:55:26.614Z,11.14
2023-04-19T20:57:54.856Z,11.16
2023-04-19T21:00:23.389Z,11.16
2023-04-19T21:02:51.805Z,11.12
2023-04-19T21:05:20.264Z,11.16
2023-04-19T21:07:48.548Z,11.15
2023-04-19T21:10:18.463Z,11.03
2023-04-19T21:12:46.742Z,11.01
2023-04-19T21:15:15.154Z,10.93
2023-04-19T21:17:43.444Z,10.89
2023-04-19T21:20:18.073Z,10.94
2023-04-19T21:22:47.516Z,10.89
2023-04-19T21:25:15.945Z,10.88
2023-04-19T21:27:45.573Z,10.83
2023-04-19T21:30:14.516Z,10.78
2023-04-19T21:32:42.791Z,10.66
2023-04-19T21:35:11.545Z,10.56
2023-04-19T21:37:39.925Z,10.55
2023-04-19T21:40:09.200Z,10.64
2023-04-19T21:42:37.657Z,10.64
2023-04-19T21:45:09.011Z,10.64
2023-04-19T21:47:37.386Z,10.54
2023-04-19T21:50:06.293Z,10.54
2023-04-19T21:52:34.513Z,10.50
2023-04-19T21:55:02.930Z,10.45
2023-04-19T21:57:31.310Z,10.42
2023-04-19T21:59:59.551Z,10.49
2023-04-19T22:02:29.429Z,10.42
2023-04-19T22:05:00.434Z,10.37
2023-04-19T22:07:30.340Z,10.39
2023-04-19T22:09:58.743Z,10.28
2023-04-19T22:12:27.288Z,10.13
2023-04-19T22:14:56.042Z,10.03
2023-04-19T22:17:24.476Z,9.99
2023-04-19T22:19:55.010Z,9.99
2023-04-19T22:22:23.440Z,9.96
2023-04-19T22:24:57.027Z,9.96
2023-04-19T22:27:26.554Z,10.01
2023-04-19T22:29:54.839Z,10.07
2023-04-19T22:32:23.208Z,10.04
2023-04-19T22:34:53.068Z,10.00
2023-04-19T22:37:21.383Z,9.97
2023-04-19T22:39:49.689Z,9.96
2023-04-19T22:42:18.162Z,9.89
2023-04-19T22:44:46.572Z,9.89
2023-04-19T22:47:15.212Z,9.83
2023-04-19T22:49:43.649Z,9.70
2023-04-19T22:52:14.574Z,9.68
2023-04-19T22:54:42.942Z,9.65
2023-04-19T22:57:12.031Z,9.68
2023-04-19T22:59:40.388Z,9.65
2023-04-19T23:02:08.780Z,9.50
2023-04-19T23:04:38.075Z,9.46
2023-04-19T23:07:07.033Z,9.44
2023-04-19T23:09:39.444Z,9.31
2023-04-19T23:12:08.360Z,9.32
2023-04-19T23:14:38.609Z,9.36
2023-04-19T23:17:07.364Z,9.33
2023-04-19T23:19:36.609Z,9.37
2023-04-19T23:22:04.934Z,9.33
2023-04-19T23:24:33.181Z,9.33
2023-04-19T23:27:03.450Z,9.24
2023-04-19T23:29:32.032Z,9.19
2023-04-19T23:32:01.824Z,9.16
2023-04-19T23:34:30.069Z,9.18
2023-04-19T23:36:58.298Z,9.11
2023-04-19T23:39:26.864Z,9.06
2023-04-19T23:41:55.345Z,9.11
2023-04-19T23:44:24.905Z,9.00
2023-04-19T23:46:53.425Z,9.01
2023-04-19T23:49:21.814Z,8.98
2023-04-19T23:51:50.409Z,8.83
2023-04-19T23:54:21.306Z,8.71
2023-04-19T23:56:50.690Z,8.64
2023-04-19T23:59:19.827Z,8.66
